Time;durP1;ratioP1;P1;durP2;ratioP2;P2;SDS_P1;SDS_P2;PMS_P1;PMS_P2;Temp;Humidity;BMP_temperature;BMP_pressure;BME280_temperature;BME280_humidity;BME280_pressure;Samples;Min_cycle;Max_cycle;Signal;HPM_P1;HPM_P2
2023/04/18 00:02:09;;;;;;;3.15;2.17;;;;;;;-143.29;100.00;62188.47;4896465;29;20089;-84
2023/04/18 00:04:34;;;;;;;3.10;1.90;;;;;;;-143.29;100.00;62188.47;4896622;29;20028;-84
2023/04/18 00:07:00;;;;;;;2.15;1.58;;;;;;;-143.29;100.00;62188.47;4896267;29;20535;-84
2023/04/18 00:09:25;;;;;;;3.20;1.65;;;;;;;-143.29;100.00;62188.47;4899892;29;20088;-84
2023/04/18 00:11:51;;;;;;;4.53;2.50;;;;;;;-143.29;100.00;62188.47;4899009;29;20171;-84
2023/04/18 00:14:18;;;;;;;3.15;2.17;;;;;;;-143.29;100.00;62188.47;4898999;29;20036;-84
2023/04/18 00:16:45;;;;;;;3.03;1.58;;;;;;;-143.29;100.00;62188.47;4899957;29;20111;-84
2023/04/18 00:19:11;;;;;;;2.15;1.60;;;;;;;-143.29;100.00;62188.47;4899699;29;20046;-84
2023/04/18 00:21:38;;;;;;;5.28;2.05;;;;;;;-143.29;100.00;62188.47;4899920;29;20432;-84
2023/04/18 00:24:04;;;;;;;3.85;2.00;;;;;;;-143.29;100.00;62188.47;4899899;29;20021;-84
2023/04/18 00:26:29;;;;;;;5.95;2.35;;;;;;;-143.29;100.00;62188.47;4898640;29;20059;-84
2023/04/18 00:28:54;;;;;;;3.38;2.25;;;;;;;-143.29;100.00;62188.47;4899631;29;20469;-84
2023/04/18 00:31:20;;;;;;;4.13;1.73;;;;;;;-143.29;100.00;62188.47;4899748;29;20033;-84
2023/04/18 00:33:45;;;;;;;3.60;2.60;;;;;;;-143.29;100.00;62188.47;4899524;29;20115;-84
2023/04/18 00:36:10;;;;;;;3.22;2.22;;;;;;;-143.29;100.00;62188.47;4899675;29;20037;-84
2023/04/18 00:38:36;;;;;;;3.65;2.30;;;;;;;-143.29;100.00;62188.47;4899575;29;20032;-84
2023/04/18 00:41:01;;;;;;;4.25;2.45;;;;;;;-143.29;100.00;62188.47;4898207;29;20028;-84
2023/04/18 00:43:27;;;;;;;4.63;2.35;;;;;;;-143.29;100.00;62188.47;4899293;29;20550;-84
2023/04/18 00:45:52;;;;;;;3.90;2.80;;;;;;;-143.29;100.00;62188.47;4898069;29;20055;-84
2023/04/18 00:48:18;;;;;;;2.80;1.70;;;;;;;-143.29;100.00;62188.47;4899515;29;20120;-84
2023/04/18 00:50:44;;;;;;;3.70;2.72;;;;;;;-143.29;100.00;62188.47;4899199;29;20060;-84
2023/04/18 00:53:09;;;;;;;2.67;2.10;;;;;;;-143.29;100.00;62188.47;4899600;29;20104;-84
2023/04/18 00:55:36;;;;;;;3.20;2.50;;;;;;;-143.29;100.00;62188.47;4898485;29;20089;-84
2023/04/18 00:58:02;;;;;;;5.47;2.70;;;;;;;-143.29;100.00;62188.47;4899111;29;20042;-84
2023/04/18 01:00:27;;;;;;;4.50;2.72;;;;;;;-143.29;100.00;62188.47;4899158;29;20104;-84
2023/04/18 01:02:54;;;;;;;3.50;2.58;;;;;;;-143.29;100.00;62188.47;4899100;29;20080;-84
2023/04/18 01:05:21;;;;;;;3.22;2.67;;;;;;;-143.29;100.00;62188.47;4898917;29;20383;-84
2023/04/18 01:07:46;;;;;;;4.10;3.00;;;;;;;-143.29;100.00;62188.47;4899005;29;20116;-84
2023/04/18 01:10:12;;;;;;;5.10;3.08;;;;;;;-143.29;100.00;62188.47;4899085;29;20104;-84
2023/04/18 01:12:38;;;;;;;4.55;2.90;;;;;;;-143.29;100.00;62188.47;4897588;29;20503;-84
2023/04/18 01:15:04;;;;;;;3.05;2.28;;;;;;;-143.29;100.00;62188.47;4898961;29;20027;-84
2023/04/18 01:17:30;;;;;;;4.28;2.78;;;;;;;-143.29;100.00;62188.47;4898750;29;20033;-84
2023/04/18 01:19:55;;;;;;;3.42;2.95;;;;;;;-143.29;100.00;62188.47;4897655;29;20368;-84
2023/04/18 01:22:21;;;;;;;4.25;2.78;;;;;;;-143.29;100.00;62188.47;4898836;29;20032;-84
2023/04/18 01:24:46;;;;;;;4.63;2.88;;;;;;;-143.29;100.00;62188.47;4897820;29;20044;-84
2023/04/18 01:27:12;;;;;;;4.72;2.95;;;;;;;-143.29;100.00;62188.47;4898509;29;20043;-84
2023/04/18 01:29:38;;;;;;;5.72;3.08;;;;;;;-143.29;100.00;62188.47;4898894;29;20369;-84
2023/04/18 01:32:04;;;;;;;4.65;3.58;;;;;;;-143.29;100.00;62188.47;4898654;29;20035;-84
2023/04/18 01:34:30;;;;;;;5.57;3.00;;;;;;;-143.29;100.00;62188.47;4898464;29;20383;-84
2023/04/18 01:36:55;;;;;;;4.88;3.35;;;;;;;-143.29;100.00;62188.47;4898406;29;20033;-84
2023/04/18 01:39:20;;;;;;;5.10;3.20;;;;;;;-143.29;100.00;62188.47;4896811;29;20459;-84
2023/04/18 01:41:46;;;;;;;5.60;3.42;;;;;;;-143.29;100.00;62188.47;4897993;29;20076;-84
2023/04/18 01:44:11;;;;;;;5.13;3.38;;;;;;;-143.29;100.00;62188.47;4898280;29;20552;-84
2023/04/18 01:46:37;;;;;;;5.68;3.85;;;;;;;-143.29;100.00;62188.47;4898345;29;20032;-84
2023/04/18 01:49:03;;;;;;;5.32;3.70;;;;;;;-143.29;100.00;62188.47;4898396;29;20169;-84
2023/04/18 01:51:30;;;;;;;6.40;4.43;;;;;;;-143.29;100.00;62188.47;4898127;29;20036;-84
2023/04/18 01:53:55;;;;;;;5.65;4.03;;;;;;;-143.29;100.00;62188.47;4898172;29;20400;-84
2023/04/18 01:56:20;;;;;;;6.28;4.97;;;;;;;-143.29;100.00;62188.47;4896502;29;20089;-84
2023/04/18 01:58:46;;;;;;;6.07;4.75;;;;;;;-143.29;100.00;62188.47;4897993;29;20424;-84
2023/04/18 02:01:11;;;;;;;4.85;4.25;;;;;;;-143.29;100.00;62188.47;4898151;29;20033;-84
2023/04/18 02:03:37;;;;;;;6.65;5.03;;;;;;;-143.29;100.00;62188.47;4897463;29;20046;-84
2023/04/18 02:06:03;;;;;;;6.15;4.75;;;;;;;-143.29;100.00;62188.47;4897908;29;20058;-84
2023/04/18 02:08:31;;;;;;;8.43;5.32;;;;;;;-143.29;100.00;62188.47;4897809;29;20101;-84
2023/04/18 02:10:57;;;;;;;7.57;5.47;;;;;;;-143.29;100.00;62188.47;4897930;29;20021;-84
2023/04/18 02:13:22;;;;;;;7.15;5.45;;;;;;;-143.29;100.00;62188.47;4897682;29;20096;-84
2023/04/18 02:15:48;;;;;;;6.82;5.45;;;;;;;-143.29;100.00;62188.47;4897736;29;20031;-84
2023/04/18 02:18:14;;;;;;;6.72;5.55;;;;;;;-143.29;100.00;62188.47;4897738;29;20039;-84
2023/04/18 02:20:40;;;;;;;7.78;6.18;;;;;;;-143.29;100.00;62188.47;4897826;29;20032;-85
2023/04/18 02:23:05;;;;;;;8.77;6.18;;;;;;;-143.29;100.00;62188.47;4896949;29;20096;-84
2023/04/18 02:25:31;;;;;;;7.82;6.03;;;;;;;-143.29;100.00;62188.47;4895785;29;20068;-84
2023/04/18 02:27:57;;;;;;;9.23;6.35;;;;;;;-143.29;100.00;62188.47;4897534;29;20043;-84
2023/04/18 02:30:25;;;;;;;8.07;6.13;;;;;;;-143.29;100.00;62188.47;4897216;29;20503;-84
2023/04/18 02:32:58;;;;;;;6.95;5.43;;;;;;;-143.29;100.00;62188.47;4897461;29;20036;-84
2023/04/18 02:35:23;;;;;;;6.78;5.30;;;;;;;-143.29;100.00;62188.47;4897185;29;20055;-85
2023/04/18 02:37:49;;;;;;;8.13;5.68;;;;;;;-143.29;100.00;62188.47;4897277;29;20487;-84
2023/04/18 02:40:14;;;;;;;7.00;5.07;;;;;;;-143.29;100.00;62188.47;4897479;29;20443;-84
2023/04/18 02:42:40;;;;;;;7.28;5.60;;;;;;;-143.29;100.00;62188.47;4897267;29;20087;-84
2023/04/18 02:45:06;;;;;;;8.27;5.43;;;;;;;-143.29;100.00;62188.47;4897143;29;20032;-84
2023/04/18 02:47:32;;;;;;;8.95;6.95;;;;;;;-143.29;100.00;62188.47;4897205;29;20391;-84
2023/04/18 02:49:57;;;;;;;7.32;6.07;;;;;;;-143.29;100.00;62188.47;4897284;29;20036;-84
2023/04/18 02:52:24;;;;;;;6.05;5.43;;;;;;;-143.29;100.00;62188.47;4897024;29;20042;-84
2023/04/18 02:54:49;;;;;;;9.00;5.60;;;;;;;-143.29;100.00;62188.47;4896358;29;20029;-84
2023/04/18 02:57:15;;;;;;;8.65;6.20;;;;;;;-143.29;100.00;62188.47;4897256;29;20043;-83
2023/04/18 02:59:40;;;;;;;7.50;5.72;;;;;;;-143.29;100.00;62188.47;4897137;29;20491;-84
2023/04/18 03:02:05;;;;;;;8.38;5.90;;;;;;;-143.29;100.00;62188.47;4896987;29;20487;-84
2023/04/18 03:04:30;;;;;;;7.18;6.00;;;;;;;-143.29;100.00;62188.47;4896912;29;20483;-84
2023/04/18 03:06:58;;;;;;;9.02;6.05;;;;;;;-143.29;100.00;62188.47;4896853;29;20503;-84
2023/04/18 03:09:23;;;;;;;6.93;5.72;;;;;;;-143.29;100.00;62188.47;4896765;29;20104;-84
2023/04/18 03:11:49;;;;;;;6.88;5.53;;;;;;;-143.29;100.00;62188.47;4896844;29;20431;-84
2023/04/18 03:14:14;;;;;;;7.97;5.85;;;;;;;-143.29;100.00;62188.47;4896842;29;20036;-84
2023/04/18 03:16:39;;;;;;;8.80;6.55;;;;;;;-143.29;100.00;62188.47;4896866;29;20092;-84
2023/04/18 03:19:05;;;;;;;8.95;6.85;;;;;;;-143.29;100.00;62188.47;4896656;29;20028;-84
2023/04/18 03:21:30;;;;;;;7.18;5.90;;;;;;;-143.29;100.00;62188.47;4896834;29;20360;-84
2023/04/18 03:23:55;;;;;;;6.88;5.82;;;;;;;-143.29;100.00;62188.47;4895778;29;20474;-84
2023/04/18 03:26:21;;;;;;;8.73;6.60;;;;;;;-143.29;100.00;62188.47;4896922;29;20388;-84
2023/04/18 03:28:46;;;;;;;8.65;6.00;;;;;;;-143.29;100.00;62188.47;4896799;29;20107;-84
2023/04/18 03:31:12;;;;;;;8.98;6.45;;;;;;;-143.29;100.00;62188.47;4895273;29;20036;-84
2023/04/18 03:33:38;;;;;;;7.88;5.97;;;;;;;-143.29;100.00;62188.47;4897113;29;20028;-84
2023/04/18 03:36:04;;;;;;;7.65;6.13;;;;;;;-143.29;100.00;62188.47;4896661;29;20081;-84
2023/04/18 03:38:30;;;;;;;9.48;6.70;;;;;;;-143.29;100.00;62188.47;4896614;29;20032;-83
2023/04/18 03:40:55;;;;;;;7.15;6.43;;;;;;;-143.29;100.00;62188.47;4896628;29;20108;-84
2023/04/18 03:43:20;;;;;;;9.18;6.53;;;;;;;-143.29;100.00;62188.47;4898168;29;20031;-84
2023/04/18 03:45:46;;;;;;;7.53;5.65;;;;;;;-143.29;100.00;62188.47;4900546;29;20041;-84
2023/04/18 03:48:13;;;;;;;9.20;6.60;;;;;;;-143.29;100.00;62188.47;4900382;29;20390;-84
2023/04/18 03:50:39;;;;;;;9.90;6.93;;;;;;;-143.29;100.00;62188.47;4900374;29;20110;-84
2023/04/18 03:53:04;;;;;;;10.27;6.47;;;;;;;-143.29;100.00;62188.47;4899499;29;20113;-84
2023/04/18 03:55:29;;;;;;;8.77;6.93;;;;;;;-143.29;100.00;62188.47;4900206;29;20024;-84
2023/04/18 03:57:57;;;;;;;7.68;6.40;;;;;;;-143.29;100.00;62188.47;4900145;29;20032;-84
2023/04/18 04:00:22;;;;;;;7.47;6.18;;;;;;;-143.29;100.00;62188.47;4900250;29;20029;-85
2023/04/18 04:02:47;;;;;;;17.00;7.03;;;;;;;-143.29;100.00;62188.47;4900312;29;20369;-85
2023/04/18 04:05:13;;;;;;;8.23;6.65;;;;;;;-143.29;100.00;62188.47;4900282;29;20039;-85
2023/04/18 04:07:38;;;;;;;8.80;6.68;;;;;;;-143.29;100.00;62188.47;4899948;29;20036;-85
2023/04/18 04:10:04;;;;;;;10.57;6.88;;;;;;;-143.29;100.00;62188.47;4899971;29;20381;-85
2023/04/18 04:12:30;;;;;;;9.95;7.70;;;;;;;-143.29;100.00;62188.47;4899985;29;20036;-84
2023/04/18 04:14:55;;;;;;;10.15;7.70;;;;;;;-143.29;100.00;62188.47;4899879;29;20032;-84
2023/04/18 04:17:20;;;;;;;9.60;7.10;;;;;;;-143.29;100.00;62188.47;4899802;29;20049;-84
2023/04/18 04:19:46;;;;;;;7.47;6.35;;;;;;;-143.29;100.00;62188.47;4899764;29;20126;-84
2023/04/18 04:22:11;;;;;;;10.07;6.38;;;;;;;-143.29;100.00;62188.47;4899814;29;20570;-84
2023/04/18 04:24:38;;;;;;;9.05;6.78;;;;;;;-143.29;100.00;62188.47;4896737;29;20036;-84
2023/04/18 04:27:04;;;;;;;11.23;7.32;;;;;;;-143.29;100.00;62188.47;4897173;29;20474;-84
2023/04/18 04:29:30;;;;;;;12.18;7.35;;;;;;;-143.29;100.00;62188.47;4898898;29;20108;-84
2023/04/18 04:31:55;;;;;;;8.95;7.20;;;;;;;-143.29;100.00;62188.47;4899831;29;20127;-84
2023/04/18 04:34:21;;;;;;;9.68;6.80;;;;;;;-143.29;100.00;62188.47;4899701;29;20060;-84
2023/04/18 04:36:47;;;;;;;9.25;6.85;;;;;;;-143.29;100.00;62188.47;4899478;29;20028;-84
2023/04/18 04:39:13;;;;;;;9.27;6.82;;;;;;;-143.29;100.00;62188.47;4899582;29;20084;-84
2023/04/18 04:41:39;;;;;;;8.07;6.95;;;;;;;-143.29;100.00;62188.47;4899418;29;20021;-84
2023/04/18 04:44:05;;;;;;;9.52;7.15;;;;;;;-143.29;100.00;62188.47;4899502;29;20024;-84
2023/04/18 04:46:32;;;;;;;9.75;6.95;;;;;;;-143.29;100.00;62188.47;4899461;29;20055;-84
2023/04/18 04:48:58;;;;;;;9.40;7.03;;;;;;;-143.29;100.00;62188.47;4899320;29;20076;-84
2023/04/18 04:51:23;;;;;;;8.93;6.93;;;;;;;-143.29;100.00;62188.47;4899467;29;20108;-84
2023/04/18 04:53:49;;;;;;;9.43;6.85;;;;;;;-143.29;100.00;62188.47;4898337;29;20116;-84
2023/04/18 04:56:14;;;;;;;8.27;6.65;;;;;;;-143.29;100.00;62188.47;4898366;29;20036;-85
2023/04/18 04:58:40;;;;;;;8.68;6.57;;;;;;;-143.29;100.00;62188.47;4898997;29;20033;-84
2023/04/18 05:01:06;;;;;;;8.85;7.00;;;;;;;-143.29;100.00;62188.47;4899066;29;20087;-84
2023/04/18 05:03:32;;;;;;;10.40;6.57;;;;;;;-143.29;100.00;62188.47;4899192;29;20399;-84
2023/04/18 05:05:58;;;;;;;12.02;7.47;;;;;;;-143.29;100.00;62188.47;4899044;29;20048;-84
2023/04/18 05:08:23;;;;;;;9.45;7.22;;;;;;;-143.29;100.00;62188.47;4898867;29;20024;-84
2023/04/18 05:10:49;;;;;;;10.63;7.20;;;;;;;-143.29;100.00;62188.47;4898959;29;20518;-84
2023/04/18 05:13:15;;;;;;;9.30;6.63;;;;;;;-143.29;100.00;62188.47;4898910;29;20036;-84
2023/04/18 05:15:40;;;;;;;9.77;7.25;;;;;;;-143.29;100.00;62188.47;4898960;29;20028;-84
2023/04/18 05:18:06;;;;;;;10.88;8.38;;;;;;;-143.29;100.00;62188.47;4898731;29;20051;-84
2023/04/18 05:20:31;;;;;;;8.93;6.82;;;;;;;-143.29;100.00;62188.47;4898806;29;20028;-84
2023/04/18 05:22:56;;;;;;;11.27;8.23;;;;;;;-143.29;100.00;62188.47;4897754;29;20589;-84
2023/04/18 05:25:22;;;;;;;9.48;6.90;;;;;;;-143.29;100.00;62188.47;4897442;29;20467;-84
2023/04/18 05:27:47;;;;;;;10.02;7.55;;;;;;;-143.29;100.00;62188.47;4898348;29;20029;-84
2023/04/18 05:30:13;;;;;;;8.93;6.38;;;;;;;-143.29;100.00;62188.47;4898578;29;20033;-84
2023/04/18 05:32:38;;;;;;;9.75;7.43;;;;;;;-143.29;100.00;62188.47;4898689;29;20039;-84
2023/04/18 05:35:05;;;;;;;11.43;7.30;;;;;;;-143.29;100.00;62188.47;4898458;29;20088;-83
2023/04/18 05:37:31;;;;;;;9.25;6.38;;;;;;;-143.29;100.00;62188.47;4898428;29;20175;-84
2023/04/18 05:39:56;;;;;;;10.23;7.63;;;;;;;-143.29;100.00;62188.47;4898627;29;20037;-84
2023/04/18 05:42:21;;;;;;;9.05;6.93;;;;;;;-143.29;100.00;62188.47;4898246;29;20079;-84
2023/04/18 05:44:46;;;;;;;9.25;7.25;;;;;;;-143.29;100.00;62188.47;4898390;29;20165;-84
2023/04/18 05:47:12;;;;;;;9.70;7.25;;;;;;;-143.29;100.00;62188.47;4898359;29;20025;-83
2023/04/18 05:49:37;;;;;;;11.57;7.47;;;;;;;-143.29;100.00;62188.47;4898110;29;20029;-84
2023/04/18 05:52:03;;;;;;;10.60;6.78;;;;;;;-143.29;100.00;62188.47;4908269;29;20028;-83
2023/04/18 05:54:28;;;;;;;9.05;6.55;;;;;;;-143.29;100.00;62188.47;4900170;29;20519;-82
2023/04/18 05:56:53;;;;;;;10.60;7.07;;;;;;;-143.29;100.00;62188.47;4898128;29;20391;-83
2023/04/18 05:59:19;;;;;;;10.65;6.95;;;;;;;-143.29;100.00;62188.47;4896773;29;20111;-83
2023/04/18 06:01:45;;;;;;;11.32;7.20;;;;;;;-143.29;100.00;62188.47;4897898;29;20111;-83
2023/04/18 06:04:11;;;;;;;10.55;6.90;;;;;;;-143.29;100.00;62188.47;4897911;29;20033;-82
2023/04/18 06:06:36;;;;;;;19.88;6.93;;;;;;;-143.29;100.00;62188.47;4896793;29;20029;-85
2023/04/18 06:09:02;;;;;;;14.98;7.45;;;;;;;-143.29;100.00;62188.47;4897534;29;20031;-84
2023/04/18 06:11:28;;;;;;;11.18;7.07;;;;;;;-143.29;100.00;62188.47;4897867;29;20028;-84
2023/04/18 06:13:54;;;;;;;12.40;7.22;;;;;;;-143.29;100.00;62188.47;4897745;29;20081;-87
2023/04/18 06:16:20;;;;;;;19.00;8.75;;;;;;;-143.29;100.00;62188.47;4897697;29;20024;-84
2023/04/18 06:18:46;;;;;;;12.35;6.72;;;;;;;-143.29;100.00;62188.47;4897588;29;20037;-81
2023/04/18 06:21:12;;;;;;;14.38;8.30;;;;;;;-143.29;100.00;62188.47;4896837;29;20028;-80
2023/04/18 06:23:38;;;;;;;17.30;8.07;;;;;;;-143.29;100.00;62188.47;4896182;29;20036;-81
2023/04/18 06:26:03;;;;;;;53.47;9.80;;;;;;;-143.29;100.00;62188.47;4897463;29;20047;-81
2023/04/18 06:28:28;;;;;;;10.77;7.35;;;;;;;-143.29;100.00;62188.47;4897912;29;20037;-81
2023/04/18 06:30:54;;;;;;;10.68;7.90;;;;;;;-143.29;100.00;62188.47;4897402;29;20056;-80
2023/04/18 06:33:20;;;;;;;14.15;8.20;;;;;;;-143.29;100.00;62188.47;4897841;29;20119;-82
2023/04/18 06:35:45;;;;;;;17.42;7.95;;;;;;;-143.29;100.00;62188.47;4895398;29;20387;-80
2023/04/18 06:38:10;;;;;;;16.00;9.30;;;;;;;-143.29;100.00;62188.47;4897192;29;20031;-81
2023/04/18 06:40:36;;;;;;;10.77;7.25;;;;;;;-143.29;100.00;62188.47;4895682;29;20031;-82
2023/04/18 06:43:01;;;;;;;11.05;8.30;;;;;;;-143.29;100.00;62188.47;4896194;29;20028;-81
2023/04/18 06:45:29;;;;;;;11.13;8.20;;;;;;;-143.29;100.00;62188.47;4897241;29;20080;-81
2023/04/18 06:47:54;;;;;;;12.82;8.85;;;;;;;-143.29;100.00;62188.47;4895310;29;20091;-80
2023/04/18 06:50:19;;;;;;;16.67;9.07;;;;;;;-143.29;100.00;62188.47;4895682;29;20033;-82
2023/04/18 06:52:45;;;;;;;14.13;8.70;;;;;;;-143.29;100.00;62188.47;4891026;29;20032;-81
2023/04/18 06:55:12;;;;;;;13.80;8.13;;;;;;;-143.29;100.00;62188.47;4896537;29;20028;-82
2023/04/18 06:57:39;;;;;;;11.90;8.10;;;;;;;-143.29;100.00;62188.47;4895770;29;20032;-81
2023/04/18 07:00:05;;;;;;;12.02;8.82;;;;;;;-143.29;100.00;62188.47;4895989;29;20043;-81
2023/04/18 07:02:31;;;;;;;13.68;9.07;;;;;;;-143.29;100.00;62188.47;4896734;29;20035;-81
2023/04/18 07:04:56;;;;;;;12.93;8.85;;;;;;;-143.29;100.00;62188.47;4897064;29;20029;-81
2023/04/18 07:07:22;;;;;;;14.27;9.00;;;;;;;-143.29;100.00;62188.47;4895614;29;20039;-81
2023/04/18 07:09:48;;;;;;;12.52;8.82;;;;;;;-143.29;100.00;62188.47;4896284;29;20025;-82
2023/04/18 07:12:14;;;;;;;14.60;9.63;;;;;;;-143.29;100.00;62188.47;4896506;29;20514;-82
2023/04/18 07:14:39;;;;;;;14.05;9.30;;;;;;;-143.29;100.00;62188.47;4896126;29;20025;-81
2023/04/18 07:17:04;;;;;;;12.70;8.52;;;;;;;-143.29;100.00;62188.47;4895798;29;20465;-81
2023/04/18 07:19:30;;;;;;;16.08;9.82;;;;;;;-143.29;100.00;62188.47;4895139;29;20039;-80
2023/04/18 07:21:55;;;;;;;16.80;10.23;;;;;;;-143.29;100.00;62188.47;4896350;29;20037;-80
2023/04/18 07:24:22;;;;;;;14.80;9.82;;;;;;;-143.29;100.00;62188.47;4896031;29;20044;-81
2023/04/18 07:26:48;;;;;;;16.65;10.63;;;;;;;-143.29;100.00;62188.47;4896221;29;20137;-80
2023/04/18 07:29:13;;;;;;;18.58;10.43;;;;;;;-143.29;100.00;62188.47;4895901;29;20029;-81
2023/04/18 07:31:39;;;;;;;17.23;9.60;;;;;;;-143.29;100.00;62188.47;4895251;29;20056;-80
2023/04/18 07:34:04;;;;;;;14.63;10.00;;;;;;;-143.29;100.00;62188.47;4895104;29;20029;-81
2023/04/18 07:36:30;;;;;;;14.85;10.15;;;;;;;-143.29;100.00;62188.47;4891276;29;20779;-80
2023/04/18 07:38:55;;;;;;;17.75;10.90;;;;;;;-143.29;100.00;62188.47;4895102;29;20029;-80
2023/04/18 07:41:21;;;;;;;16.25;10.85;;;;;;;-143.29;100.00;62188.47;4897776;29;20119;-80
2023/04/18 07:43:46;;;;;;;18.55;11.25;;;;;;;-143.29;100.00;62188.47;4894174;29;20112;-79
2023/04/18 07:46:11;;;;;;;14.48;10.60;;;;;;;-143.29;100.00;62188.47;4895407;29;20071;-80
2023/04/18 07:48:37;;;;;;;15.25;10.50;;;;;;;-143.29;100.00;62188.47;4895506;29;20036;-79
2023/04/18 07:51:02;;;;;;;19.05;11.45;;;;;;;-143.29;100.00;62188.47;4897005;29;20100;-82
2023/04/18 07:53:28;;;;;;;17.70;11.50;;;;;;;-143.29;100.00;62188.47;4884489;29;20028;-81
2023/04/18 07:55:54;;;;;;;17.52;10.90;;;;;;;-143.29;100.00;62188.47;4893894;29;20496;-85
2023/04/18 07:58:20;;;;;;;16.63;11.25;;;;;;;-143.29;100.00;62188.47;4896145;29;20029;-86
2023/04/18 08:00:45;;;;;;;16.85;10.63;;;;;;;-143.29;100.00;62188.47;4894101;29;20103;-89
2023/04/18 08:03:11;;;;;;;16.02;11.07;;;;;;;-143.29;100.00;62188.47;4895922;29;20060;-87
2023/04/18 08:05:40;;;;;;;14.15;9.65;;;;;;;-143.29;100.00;62188.47;4895464;29;20471;-88
2023/04/18 08:08:07;;;;;;;16.48;9.52;;;;;;;-143.29;100.00;62188.47;4895630;29;20044;-89
2023/04/18 08:10:33;;;;;;;20.05;10.85;;;;;;;-143.29;100.00;62188.47;4892719;29;20032;-89
2023/04/18 08:12:59;;;;;;;17.30;9.90;;;;;;;-143.29;100.00;62188.47;4896460;29;20498;-91
2023/04/18 08:15:26;;;;;;;15.75;10.20;;;;;;;-143.29;100.00;62188.47;4893818;29;20037;-91
2023/04/18 08:17:52;;;;;;;15.13;9.73;;;;;;;-143.29;100.00;62188.47;4894879;29;20059;-90
2023/04/18 08:20:18;;;;;;;12.63;8.52;;;;;;;-143.29;100.00;62188.47;4895920;29;20021;-91
2023/04/18 08:22:43;;;;;;;13.23;9.20;;;;;;;-143.29;100.00;62188.47;4896064;29;20033;-90
2023/04/18 08:25:08;;;;;;;17.52;9.68;;;;;;;-143.29;100.00;62188.47;4895946;29;20029;-91
2023/04/18 08:27:34;;;;;;;13.77;7.90;;;;;;;-143.29;100.00;62188.47;4896102;29;20033;-91
2023/04/18 08:30:00;;;;;;;14.77;8.23;;;;;;;-143.29;100.00;62188.47;4898440;29;20028;-91
2023/04/18 08:32:26;;;;;;;13.45;8.60;;;;;;;-143.29;100.00;62188.47;4899695;29;20071;-91
2023/04/18 08:34:51;;;;;;;9.73;7.50;;;;;;;-143.29;100.00;62188.47;4899521;29;20056;-91
2023/04/18 08:37:16;;;;;;;9.93;7.43;;;;;;;-143.29;100.00;62188.47;4898359;29;20368;-91
2023/04/18 08:39:42;;;;;;;10.75;6.90;;;;;;;-143.29;100.00;62188.47;4899663;29;20458;-91
2023/04/18 08:42:09;;;;;;;10.85;7.40;;;;;;;-143.29;100.00;62188.47;4899528;29;20020;-90
2023/04/18 08:44:36;;;;;;;10.45;7.15;;;;;;;-143.29;100.00;62188.47;4899452;29;20029;-91
2023/04/18 08:47:01;;;;;;;9.40;7.20;;;;;;;-143.29;100.00;62188.47;4899225;29;20464;-91
2023/04/18 08:49:27;;;;;;;11.88;6.97;;;;;;;-143.29;100.00;62188.47;4899393;29;20039;-90
2023/04/18 08:51:52;;;;;;;8.95;6.75;;;;;;;-143.29;100.00;62188.47;4899432;29;20028;-90
2023/04/18 08:54:19;;;;;;;9.23;6.43;;;;;;;-143.29;100.00;62188.47;4898318;29;20025;-90
2023/04/18 08:56:45;;;;;;;8.90;6.13;;;;;;;-143.29;100.00;62188.47;4899067;29;20032;-90
2023/04/18 08:59:11;;;;;;;8.05;5.88;;;;;;;-143.29;100.00;62188.47;4899131;29;20040;-90
2023/04/18 09:01:57;;;;;;;7.30;6.00;;;;;;;-143.29;100.00;62188.47;4898006;29;20028;-90
2023/04/18 09:04:47;;;;;;;7.95;6.18;;;;;;;-143.29;100.00;62188.47;4899031;29;20029;-90
2023/04/18 09:07:16;;;;;;;6.85;5.53;;;;;;;-143.29;100.00;62188.47;4899448;29;20063;-90
2023/04/18 09:09:53;;;;;;;7.28;5.22;;;;;;;-143.29;100.00;62188.47;4898722;29;20028;-90
2023/04/18 09:12:23;;;;;;;7.97;5.47;;;;;;;-143.29;100.00;62188.47;4899004;29;20391;-90
2023/04/18 09:14:50;;;;;;;7.22;5.32;;;;;;;-143.29;100.00;62188.47;4898121;29;20040;-90
2023/04/18 09:17:31;;;;;;;8.52;5.30;;;;;;;-143.29;100.00;62188.47;4891376;29;20040;-90
2023/04/18 09:19:57;;;;;;;5.53;4.43;;;;;;;-143.29;100.00;62188.47;4898640;29;20029;-90
2023/04/18 09:22:23;;;;;;;7.53;5.40;;;;;;;-143.29;100.00;62188.47;4898762;29;20279;-90
2023/04/18 09:24:52;;;;;;;6.38;5.35;;;;;;;-143.29;100.00;62188.47;4898785;29;20029;-90
2023/04/18 09:27:19;;;;;;;6.85;5.35;;;;;;;-143.29;100.00;62188.47;4898693;29;20043;-90
2023/04/18 09:29:48;;;;;;;6.30;5.25;;;;;;;-143.29;100.00;62188.47;4898641;29;20041;-90
2023/04/18 09:32:23;;;;;;;6.15;4.78;;;;;;;-143.29;100.00;62188.47;4888796;29;20521;-90
2023/04/18 09:34:53;;;;;;;6.20;5.05;;;;;;;-143.29;100.00;62188.47;4880102;29;20059;-89
2023/04/18 09:37:19;;;;;;;7.75;5.78;;;;;;;-143.29;100.00;62188.47;4879691;29;20036;-89
2023/04/18 09:39:44;;;;;;;9.40;5.15;;;;;;;-143.29;100.00;62188.47;4879561;29;20028;-89
2023/04/18 09:42:10;;;;;;;10.63;5.80;;;;;;;-143.29;100.00;62188.47;4878991;29;20029;-88
2023/04/18 09:44:37;;;;;;;6.47;5.47;;;;;;;-143.29;100.00;62188.47;4879772;29;20164;-89
2023/04/18 09:47:02;;;;;;;6.82;5.32;;;;;;;-143.29;100.00;62188.47;4879619;29;20032;-88
2023/04/18 09:49:28;;;;;;;7.30;5.20;;;;;;;-143.29;100.00;62188.47;4879710;29;20033;-88
2023/04/18 09:51:54;;;;;;;8.25;5.55;;;;;;;-143.29;100.00;62188.47;4879635;29;20089;-89
2023/04/18 09:54:23;;;;;;;7.45;5.63;;;;;;;-143.29;100.00;62188.47;4889065;29;20419;-89
2023/04/18 09:56:50;;;;;;;6.55;5.28;;;;;;;-143.29;100.00;62188.47;4898153;29;20475;-88
2023/04/18 09:59:46;;;;;;;8.23;5.72;;;;;;;-143.29;100.00;62188.47;4898299;29;20092;-88
2023/04/18 10:02:16;;;;;;;6.03;4.38;;;;;;;-143.29;100.00;62188.47;4898311;29;20029;-89
2023/04/18 10:04:45;;;;;;;6.28;5.32;;;;;;;-143.29;100.00;62188.47;4898060;29;20484;-88
2023/04/18 10:07:11;;;;;;;6.40;4.35;;;;;;;-143.29;100.00;62188.47;4898156;29;20079;-88
2023/04/18 10:09:38;;;;;;;6.05;4.63;;;;;;;-143.29;100.00;62188.47;4898270;29;20536;-88
2023/04/18 10:12:04;;;;;;;6.43;4.60;;;;;;;-143.29;100.00;62188.47;4897942;29;20035;-88
2023/04/18 10:14:32;;;;;;;6.72;3.97;;;;;;;-143.29;100.00;62188.47;4898109;29;20036;-88
2023/04/18 10:16:58;;;;;;;8.95;4.97;;;;;;;-143.29;100.00;62188.47;4897846;29;20024;-88
2023/04/18 10:19:25;;;;;;;6.47;5.03;;;;;;;-143.29;100.00;62188.47;4897988;29;20032;-88
2023/04/18 10:22:00;;;;;;;6.13;4.68;;;;;;;-143.29;100.00;62188.47;4897768;29;20092;-88
2023/04/18 10:24:44;;;;;;;7.70;4.35;;;;;;;-143.29;100.00;62188.47;4896832;29;20178;-88
2023/04/18 10:27:10;;;;;;;5.53;4.80;;;;;;;-143.29;100.00;62188.47;4897885;29;20032;-88
2023/04/18 10:29:48;;;;;;;7.22;4.80;;;;;;;-143.29;100.00;62188.47;4897686;29;20036;-88
2023/04/18 10:32:15;;;;;;;5.43;4.63;;;;;;;-143.29;100.00;62188.47;4897551;29;20040;-88
2023/04/18 10:34:40;;;;;;;6.47;4.68;;;;;;;-143.29;100.00;62188.47;4897721;29;20033;-88
2023/04/18 10:37:06;;;;;;;7.22;4.65;;;;;;;-143.29;100.00;62188.47;4897194;29;20035;-88
2023/04/18 10:39:46;;;;;;;5.50;4.50;;;;;;;-143.29;100.00;62188.47;4897261;29;20068;-88
2023/04/18 10:42:12;;;;;;;5.47;4.83;;;;;;;-143.29;100.00;62188.47;4897556;29;20024;-87
2023/04/18 10:44:37;;;;;;;4.75;4.20;;;;;;;-143.29;100.00;62188.47;4897411;29;20603;-88
2023/04/18 10:47:05;;;;;;;6.53;4.30;;;;;;;-143.29;100.00;62188.47;4897345;29;20120;-88
2023/04/18 10:49:31;;;;;;;8.32;4.18;;;;;;;-143.29;100.00;62188.47;4897272;29;20066;-87
2023/04/18 10:51:58;;;;;;;5.40;4.38;;;;;;;-143.29;100.00;62188.47;4896964;29;20025;-88
2023/04/18 10:54:45;;;;;;;5.68;4.30;;;;;;;-143.29;100.00;62188.47;4896405;29;20064;-88
2023/04/18 10:57:12;;;;;;;6.25;4.63;;;;;;;-143.29;100.00;62188.47;4896346;29;20043;-87
2023/04/18 10:59:41;;;;;;;6.85;4.40;;;;;;;-143.29;100.00;62188.47;4897112;29;20391;-88
2023/04/18 11:02:24;;;;;;;5.82;3.78;;;;;;;-143.29;100.00;62188.47;4896224;29;20028;-88
2023/04/18 11:04:54;;;;;;;5.53;3.85;;;;;;;-143.29;100.00;62188.47;4897180;29;20043;-88